Time;durP1;ratioP1;P1;durP2;ratioP2;P2;SDS_P1;SDS_P2;PMS_P1;PMS_P2;Temp;Humidity;BMP_temperature;BMP_pressure;BME280_temperature;BME280_humidity;BME280_pressure;Samples;Min_cycle;Max_cycle;Signal;HPM_P1;HPM_P2
2022/07/13 00:03:09;;;;;;;;;5.75;5.25;;;;;30.66;23.21;101423.53;4921490;28;45712;-81
2022/07/13 00:05:34;;;;;;;;;4.75;4.25;;;;;30.64;23.18;101429.16;4923826;28;45586;-82
2022/07/13 00:08:00;;;;;;;;;5.00;5.00;;;;;30.53;23.24;101407.38;4924560;28;45465;-82
2022/07/13 00:10:25;;;;;;;;;4.25;4.25;;;;;30.53;23.28;101423.63;4924009;28;45642;-83
2022/07/13 00:12:51;;;;;;;;;6.00;5.00;;;;;30.50;23.47;101410.53;4924764;28;45969;-83
2022/07/13 00:15:16;;;;;;;;;6.50;5.25;;;;;30.52;23.54;101430.91;4923399;28;45799;-83
2022/07/13 00:17:41;;;;;;;;;5.25;4.75;;;;;30.49;23.66;101425.13;4918707;28;45636;-80
2022/07/13 00:20:07;;;;;;;;;5.50;5.00;;;;;30.41;24.04;101418.88;4924161;28;45568;-82
2022/07/13 00:22:33;;;;;;;;;6.25;5.50;;;;;30.33;23.85;101412.94;4923128;28;45683;-82
2022/07/13 00:24:58;;;;;;;;;8.00;7.00;;;;;30.33;23.61;101410.22;4919242;28;45710;-83
2022/07/13 00:27:23;;;;;;;;;5.25;5.25;;;;;30.23;23.95;101405.28;4924293;28;45787;-81
2022/07/13 00:33:11;;;;;;;;;6.00;6.00;;;;;30.23;24.22;101424.19;4924295;28;45828;-80
2022/07/13 00:35:37;;;;;;;;;6.25;5.75;;;;;30.19;24.31;101416.75;4924846;28;45510;-82
2022/07/13 00:38:02;;;;;;;;;5.25;4.50;;;;;30.16;24.14;101422.59;4924576;28;45613;-83
2022/07/13 00:40:28;;;;;;;;;6.00;5.00;;;;;30.13;24.14;101420.31;4906851;28;47360;-82
2022/07/13 00:42:53;;;;;;;;;5.00;5.00;;;;;30.03;24.19;101401.88;4906699;28;46974;-83
2022/07/13 00:48:42;;;;;;;;;4.50;3.50;;;;;30.03;24.52;101410.81;4923961;28;45681;-82
2022/07/13 00:51:07;;;;;;;;;4.50;4.50;;;;;29.98;24.51;101399.84;4907129;28;47134;-81
2022/07/13 00:53:38;;;;;;;;;4.25;4.25;;;;;29.94;24.52;101395.09;4924270;28;45537;-82
2022/07/13 00:56:05;;;;;;;;;5.00;4.25;;;;;29.92;24.40;101395.28;4923838;28;45693;-82
2022/07/13 00:58:31;;;;;;;;;4.75;4.50;;;;;29.89;24.76;101393.00;4924036;28;45664;-83
2022/07/13 01:00:56;;;;;;;;;4.00;4.00;;;;;29.83;24.38;101388.47;4923862;28;45576;-82
2022/07/13 01:03:22;;;;;;;;;5.00;4.00;;;;;29.88;24.37;101404.84;4923258;28;45489;-83
2022/07/13 01:05:47;;;;;;;;;5.75;5.00;;;;;29.86;24.56;101395.28;4920594;28;45657;-83
2022/07/13 01:08:13;;;;;;;;;6.00;6.00;;;;;29.80;24.37;101394.28;4899419;28;45835;-81
2022/07/13 01:10:42;;;;;;;;;4.00;3.25;;;;;29.74;24.66;101383.53;4916247;28;45927;-83
2022/07/13 01:13:10;;;;;;;;;3.50;3.00;;;;;29.73;24.36;101390.81;4916588;28;46317;-83
2022/07/13 01:18:58;;;;;;;;;3.25;3.25;;;;;29.71;24.55;101386.66;4916382;28;45825;-82
2022/07/13 01:21:24;;;;;;;;;6.25;6.00;;;;;29.69;24.90;101400.38;4915854;28;45629;-83
2022/07/13 01:23:51;;;;;;;;;5.00;5.00;;;;;29.61;24.54;101387.94;4916153;28;46406;-83
2022/07/13 01:26:16;;;;;;;;;6.00;4.50;;;;;29.57;24.50;101380.50;4916000;28;45558;-83
2022/07/13 01:28:42;;;;;;;;;5.00;4.25;;;;;29.58;24.84;101392.97;4918885;28;45414;-80
2022/07/13 01:31:07;;;;;;;;;4.50;3.75;;;;;29.49;24.89;101389.66;4924002;28;45608;-83
2022/07/13 01:33:33;;;;;;;;;4.00;3.75;;;;;29.46;24.88;101376.59;4924604;28;45474;-82
2022/07/13 01:35:58;;;;;;;;;5.00;4.50;;;;;29.44;24.78;101384.06;4924693;28;45782;-82
2022/07/13 01:38:24;;;;;;;;;3.00;3.00;;;;;29.41;24.94;101383.69;4924224;28;45639;-83
2022/07/13 01:40:50;;;;;;;;;4.50;4.00;;;;;29.35;24.59;101371.03;4924551;28;46473;-82
2022/07/13 01:43:17;;;;;;;;;6.00;5.00;;;;;29.40;24.96;101387.41;4924125;28;45877;-81
2022/07/13 01:49:04;;;;;;;;;4.00;4.00;;;;;29.32;24.90;101380.38;4918816;28;45602;-82
2022/07/13 01:51:29;;;;;;;;;4.00;4.00;;;;;29.29;24.72;101383.47;4919051;28;45549;-82
2022/07/13 01:53:55;;;;;;;;;4.75;4.00;;;;;29.23;24.59;101381.63;4919179;28;45673;-82
2022/07/13 01:56:21;;;;;;;;;4.50;4.00;;;;;29.19;24.66;101373.13;4919110;28;45632;-81
2022/07/13 01:58:46;;;;;;;;;4.25;4.25;;;;;29.18;25.21;101373.34;4919079;28;45644;-82
2022/07/13 02:01:12;;;;;;;;;4.00;4.00;;;;;29.14;24.98;101367.53;4919098;28;46497;-81
2022/07/13 02:03:38;;;;;;;;;5.00;4.25;;;;;29.21;25.04;101379.13;4901505;28;46808;-80
2022/07/13 02:06:05;;;;;;;;;4.00;4.00;;;;;29.18;24.58;101368.78;4918748;28;45876;-78
2022/07/13 02:08:31;;;;;;;;;4.50;4.50;;;;;29.23;25.00;101370.81;4920256;28;45658;-82
2022/07/13 02:10:56;;;;;;;;;5.00;4.00;;;;;29.25;24.73;101371.44;4919812;28;45679;-81
2022/07/13 02:13:22;;;;;;;;;4.00;3.75;;;;;29.26;24.69;101373.09;4919228;28;46624;-82
2022/07/13 02:19:09;;;;;;;;;3.00;3.00;;;;;29.29;25.15;101361.03;4918439;28;45570;-80
2022/07/13 02:21:34;;;;;;;;;3.75;3.75;;;;;29.29;25.10;101350.25;4918784;28;46850;-80
2022/07/13 02:24:00;;;;;;;;;3.75;3.75;;;;;29.27;24.92;101352.31;4919020;28;46444;-83
2022/07/13 02:26:25;;;;;;;;;4.00;3.25;;;;;29.33;25.07;101359.59;4918594;28;45641;-84
2022/07/13 02:28:51;;;;;;;;;4.00;4.00;;;;;29.23;25.24;101345.69;4901890;28;45588;-81
2022/07/13 02:34:38;;;;;;;;;4.50;4.00;;;;;29.29;25.30;101352.94;4918525;28;45831;-83
2022/07/13 02:37:03;;;;;;;;;3.00;3.00;;;;;29.24;25.32;101345.50;4918899;28;45786;-83
2022/07/13 02:39:29;;;;;;;;;5.25;4.00;;;;;29.26;24.87;101351.47;4919235;28;45654;-84
2022/07/13 02:41:54;;;;;;;;;4.75;4.00;;;;;29.24;25.13;101350.06;4919653;28;46776;-83
2022/07/13 02:44:20;;;;;;;;;5.00;5.00;;;;;29.21;25.43;101338.63;4918945;28;46047;-82
2022/07/13 02:46:45;;;;;;;;;4.00;3.50;;;;;29.21;25.04;101344.03;4919313;28;45639;-82
2022/07/13 02:49:11;;;;;;;;;4.50;4.50;;;;;29.21;25.13;101346.72;4919008;28;45741;-83
2022/07/13 02:51:36;;;;;;;;;4.75;4.00;;;;;29.21;25.01;101352.13;4918523;28;47053;-80
2022/07/13 02:54:02;;;;;;;;;3.75;3.75;;;;;29.12;25.05;101331.81;4918277;28;45586;-81
2022/07/13 02:56:27;;;;;;;;;5.00;4.00;;;;;29.17;25.34;101345.50;4918054;28;45677;-82
2022/07/13 02:58:53;;;;;;;;;4.00;3.75;;;;;29.14;25.41;101342.41;4900533;28;45583;-82
2022/07/13 03:04:40;;;;;;;;;5.75;4.75;;;;;29.09;25.56;101343.06;4915615;28;45685;-81
2022/07/13 03:07:05;;;;;;;;;5.00;5.00;;;;;29.08;25.10;101344.09;4918045;28;45469;-82
2022/07/13 03:09:31;;;;;;;;;4.00;3.00;;;;;29.10;25.27;101350.09;4917941;28;46016;-82
2022/07/13 03:11:56;;;;;;;;;4.00;4.00;;;;;29.10;25.31;101355.50;4918236;28;45757;-82
2022/07/13 03:14:21;;;;;;;;;8.00;6.25;;;;;29.09;25.58;101356.56;4917907;28;46419;-82
2022/07/13 03:20:09;;;;;;;;;4.50;4.50;;;;;29.04;25.62;101348.22;4917810;28;45624;-82
2022/07/13 03:22:35;;;;;;;;;4.00;4.00;;;;;29.03;25.43;101351.16;4900432;28;48304;-83
2022/07/13 03:25:02;;;;;;;;;4.75;4.00;;;;;29.06;25.67;101356.13;4917557;28;45897;-80
2022/07/13 03:27:27;;;;;;;;;5.00;5.00;;;;;29.05;25.92;101355.28;4900541;28;45866;-81
2022/07/13 03:29:53;;;;;;;;;5.00;4.00;;;;;28.99;26.02;101348.03;4920011;28;45727;-80
2022/07/13 03:32:18;;;;;;;;;4.75;4.00;;;;;29.05;25.31;101352.59;4907771;28;47225;-81
2022/07/13 03:34:44;;;;;;;;;4.00;4.00;;;;;29.03;25.41;101346.59;4925936;28;46075;-81
2022/07/13 03:37:09;;;;;;;;;5.75;4.00;;;;;28.99;25.95;101339.94;4921969;28;45656;-82
2022/07/13 03:39:35;;;;;;;;;6.00;5.00;;;;;28.97;25.82;101331.25;4919108;28;45494;-82
2022/07/13 03:42:00;;;;;;;;;4.00;4.00;;;;;29.04;25.95;101356.34;4918230;28;45749;-81
2022/07/13 03:44:25;;;;;;;;;4.00;3.75;;;;;28.99;26.22;101345.34;4917370;28;46128;-80
2022/07/13 03:50:13;;;;;;;;;7.25;5.25;;;;;29.04;25.89;101350.94;4916555;28;45679;-81
2022/07/13 03:52:38;;;;;;;;;4.75;4.50;;;;;28.98;26.03;101349.09;4917519;28;45852;-83
2022/07/13 03:55:04;;;;;;;;;5.50;5.00;;;;;28.96;26.06;101343.09;4917509;28;46771;-82
2022/07/13 03:57:30;;;;;;;;;5.00;5.00;;;;;28.99;25.72;101358.84;4917840;28;45658;-81
2022/07/13 03:59:55;;;;;;;;;6.75;4.00;;;;;28.92;25.60;101341.03;4917377;28;45777;-82
2022/07/13 04:05:42;;;;;;;;;6.00;4.00;;;;;28.97;26.01;101347.44;4915326;28;45883;-81
2022/07/13 04:08:08;;;;;;;;;4.50;4.50;;;;;28.94;25.84;101353.25;4917548;28;45698;-82
2022/07/13 04:10:34;;;;;;;;;5.75;5.00;;;;;28.89;26.62;101355.75;4917330;28;45939;-82
2022/07/13 04:13:00;;;;;;;;;6.75;5.50;;;;;28.85;26.34;101342.91;4899944;28;47601;-81
2022/07/13 04:15:25;;;;;;;;;5.50;4.75;;;;;28.83;26.18;101348.50;4916601;28;45728;-81
2022/07/13 04:17:50;;;;;;;;;5.25;5.25;;;;;28.90;26.10;101360.13;4917415;28;46136;-83
2022/07/13 04:20:16;;;;;;;;;6.25;4.75;;;;;28.85;26.39;101354.53;4917345;28;45691;-80
2022/07/13 04:22:41;;;;;;;;;5.00;5.00;;;;;28.84;25.99;101343.94;4917323;28;45733;-83
2022/07/13 04:25:07;;;;;;;;;5.00;4.75;;;;;28.88;26.00;101353.28;4917472;28;46185;-83
2022/07/13 04:27:32;;;;;;;;;6.00;5.00;;;;;28.87;26.70;101357.84;4917512;28;45555;-81
2022/07/13 04:29:58;;;;;;;;;5.00;4.25;;;;;28.82;26.20;101348.72;4918593;28;45739;-83
2022/07/13 04:35:44;;;;;;;;;3.00;3.00;;;;;28.84;26.60;101346.63;4917034;28;45676;-81
2022/07/13 04:38:10;;;;;;;;;4.00;4.00;;;;;28.85;26.12;101351.81;4917557;28;45640;-82
2022/07/13 04:40:35;;;;;;;;;4.75;4.50;;;;;28.81;26.41;101345.19;4917146;28;45657;-82
2022/07/13 04:43:01;;;;;;;;;6.00;5.50;;;;;28.84;26.66;101349.31;4916632;28;45923;-82
2022/07/13 04:45:26;;;;;;;;;5.00;5.00;;;;;28.78;26.37;101341.03;4916359;28;46277;-82
2022/07/13 04:51:14;;;;;;;;;5.00;4.25;;;;;28.81;26.62;101338.97;4916626;28;45516;-80
2022/07/13 04:53:40;;;;;;;;;6.50;5.75;;;;;28.83;26.66;101345.78;4916727;28;45701;-79
2022/07/13 04:56:06;;;;;;;;;5.00;5.00;;;;;28.82;26.83;101343.34;4916583;28;46560;-80
2022/07/13 04:58:32;;;;;;;;;5.25;5.00;;;;;28.85;26.52;101351.00;4916151;28;45630;-79
2022/07/13 05:00:58;;;;;;;;;4.75;4.25;;;;;28.80;26.48;101348.94;4899223;28;45575;-80
2022/07/13 05:03:23;;;;;;;;;6.25;5.25;;;;;28.77;26.58;101341.28;4919706;28;45749;-83
2022/07/13 05:05:48;;;;;;;;;6.00;5.00;;;;;28.83;26.45;101347.69;4919440;28;46323;-82
2022/07/13 05:08:14;;;;;;;;;4.25;4.25;;;;;28.76;26.50;101334.22;4919853;28;45628;-83
2022/07/13 05:10:39;;;;;;;;;4.00;4.00;;;;;28.81;26.68;101342.50;4919986;28;45577;-83
2022/07/13 05:13:05;;;;;;;;;5.75;4.75;;;;;28.79;26.56;101340.00;4919678;28;45602;-82
2022/07/13 05:15:30;;;;;;;;;5.00;5.00;;;;;28.85;26.58;101353.69;4919448;28;45760;-83
2022/07/13 05:21:17;;;;;;;;;3.25;2.00;;;;;28.82;26.68;101354.97;4919632;28;45628;-83
2022/07/13 05:23:43;;;;;;;;;5.75;5.75;;;;;28.86;26.56;101352.66;4919509;28;45533;-83
2022/07/13 05:26:08;;;;;;;;;5.00;5.00;;;;;28.79;27.31;101341.88;4919465;28;46421;-83
2022/07/13 05:28:34;;;;;;;;;4.75;4.00;;;;;28.88;27.24;101358.69;4919759;28;45703;-83
2022/07/13 05:30:59;;;;;;;;;4.75;4.75;;;;;28.83;27.35;101351.19;4902307;28;45988;-83
2022/07/13 05:36:47;;;;;;;;;5.00;5.00;;;;;28.87;27.16;101357.00;4919069;28;45682;-83
2022/07/13 05:39:12;;;;;;;;;5.00;5.00;;;;;28.88;27.09;101356.78;4919498;28;45658;-84
2022/07/13 05:41:38;;;;;;;;;6.50;5.00;;;;;28.88;27.14;101356.78;4919855;28;46155;-82
2022/07/13 05:44:04;;;;;;;;;5.00;5.00;;;;;28.89;27.06;101363.84;4918958;28;45981;-81
2022/07/13 05:46:31;;;;;;;;;5.00;5.00;;;;;28.89;26.69;101361.16;4918477;28;45685;-82
2022/07/13 05:48:56;;;;;;;;;9.50;9.00;;;;;28.91;26.89;101366.34;4919714;28;45929;-82
2022/07/13 05:51:22;;;;;;;;;8.00;7.00;;;;;28.90;27.16;101354.72;4919275;28;45538;-83
2022/07/13 05:53:47;;;;;;;;;7.75;7.00;;;;;28.93;27.38;101361.56;4919088;28;45865;-83
2022/07/13 05:56:14;;;;;;;;;6.00;6.00;;;;;28.92;26.97;101359.91;4919324;28;46215;-82
2022/07/13 05:58:39;;;;;;;;;18.75;16.25;;;;;28.95;27.15;101364.88;4919023;28;45808;-83
2022/07/13 06:01:04;;;;;;;;;8.25;7.75;;;;;28.97;26.76;101360.94;4901937;28;45840;-84
2022/07/13 06:06:52;;;;;;;;;6.00;5.00;;;;;29.01;26.97;101367.56;4916308;28;46050;-83
2022/07/13 06:09:17;;;;;;;;;5.25;4.75;;;;;29.01;27.07;101372.97;4917915;28;45683;-78
2022/07/13 06:11:43;;;;;;;;;6.25;5.25;;;;;29.04;27.24;101374.44;4918086;28;45788;-80
2022/07/13 06:14:09;;;;;;;;;6.50;5.00;;;;;29.06;27.94;101380.41;4917211;28;46559;-78
2022/07/13 06:16:34;;;;;;;;;8.00;6.25;;;;;29.03;28.31;101372.75;4916860;28;46488;-78
2022/07/13 06:22:22;;;;;;;;;6.25;6.25;;;;;29.09;28.82;101372.75;4918062;28;45866;-80
2022/07/13 06:24:48;;;;;;;;;4.00;4.00;;;;;29.10;28.69;101384.34;4900621;28;48368;-81
2022/07/13 06:27:13;;;;;;;;;5.75;5.25;;;;;29.10;29.54;101373.56;4918382;28;46406;-81
2022/07/13 06:29:38;;;;;;;;;7.00;6.00;;;;;29.10;30.62;101378.94;4918832;28;45573;-84
2022/07/13 06:32:04;;;;;;;;;5.00;5.00;;;;;29.05;29.73;101358.00;4918580;28;45587;-81
2022/07/13 06:34:30;;;;;;;;;5.00;4.50;;;;;29.13;29.85;101373.97;4918855;28;46553;-80
2022/07/13 06:36:55;;;;;;;;;7.50;7.00;;;;;29.08;31.13;101373.78;4919604;28;45709;-82
2022/07/13 06:39:20;;;;;;;;;5.00;4.25;;;;;29.11;30.23;101367.13;4919085;28;45679;-83
2022/07/13 06:41:46;;;;;;;;;6.00;5.00;;;;;29.14;30.36;101375.63;4919701;28;45673;-79
2022/07/13 06:44:12;;;;;;;;;4.75;4.25;;;;;29.11;29.82;101372.50;4919037;28;46657;-88
2022/07/13 06:46:38;;;;;;;;;9.25;9.25;;;;;29.12;31.12;101375.00;4918736;28;46725;-84
2022/07/13 06:52:25;;;;;;;;;5.00;4.25;;;;;29.14;29.40;101364.84;4917916;28;45593;-82
2022/07/13 06:55:50;;;;;;;;;6.50;5.00;;;;;29.07;29.41;101353.22;4916414;28;48305;-87
2022/07/13 06:58:11;;;;;;;;;5.75;5.75;;;;;29.15;30.36;101360.28;4916029;28;46099;-81
2022/07/13 07:00:37;;;;;;;;;5.75;5.00;;;;;29.17;30.13;101366.28;4900674;28;45761;-80
2022/07/13 07:03:03;;;;;;;;;7.00;6.00;;;;;29.17;31.99;101360.88;4916929;28;45478;-80
2022/07/13 07:05:28;;;;;;;;;8.75;6.50;;;;;29.29;31.91;101377.25;4917358;28;45567;-81
2022/07/13 07:07:59;;;;;;;;;6.75;5.50;;;;;29.25;31.21;101370.63;4916856;28;46353;-81
2022/07/13 07:10:24;;;;;;;;;7.25;6.50;;;;;29.29;30.76;101372.69;4900913;28;45748;-81
2022/07/13 07:12:50;;;;;;;;;5.00;4.25;;;;;29.35;29.97;101389.94;4917571;28;45648;-84
2022/07/13 07:15:15;;;;;;;;;11.00;8.00;;;;;29.33;29.45;101378.50;4901015;28;47597;-80
2022/07/13 07:17:45;;;;;;;;;6.00;5.25;;;;;29.33;29.33;101382.03;4918436;28;45595;-80
2022/07/13 07:20:11;;;;;;;;;5.75;5.00;;;;;29.32;29.13;101363.34;4918141;28;45607;-85
2022/07/13 07:22:36;;;;;;;;;6.25;6.00;;;;;29.27;28.65;101358.56;4918179;28;45682;-83
2022/07/13 07:25:02;;;;;;;;;7.00;5.00;;;;;29.35;29.36;101381.81;4916662;28;45796;-80
2022/07/13 07:27:27;;;;;;;;;5.00;5.00;;;;;29.30;29.43;101373.50;4918154;28;45758;-83
2022/07/13 07:29:53;;;;;;;;;6.00;5.00;;;;;29.26;30.12;101362.28;4917370;28;45626;-81
2022/07/13 07:32:18;;;;;;;;;8.00;7.00;;;;;29.28;29.97;101371.00;4918051;28;45919;-83
2022/07/13 07:38:05;;;;;;;;;4.75;3.50;;;;;29.34;29.85;101377.47;4918490;28;46097;-82
2022/07/13 07:40:31;;;;;;;;;4.25;4.25;;;;;29.35;30.26;101379.97;4919603;28;45684;-82
2022/07/13 07:42:56;;;;;;;;;5.00;4.75;;;;;29.31;29.90;101367.91;4917603;28;45670;-83
2022/07/13 07:45:30;;;;;;;;;4.00;3.00;;;;;29.40;29.18;101380.16;5106423;27;45919;-82
2022/07/13 07:47:56;;;;;;;;;8.00;6.00;;;;;29.42;28.59;101380.75;5082224;27;46003;-81
2022/07/13 07:50:21;;;;;;;;;3.00;3.00;;;;;29.43;27.92;101379.72;5070013;27;45745;-83
2022/07/13 07:52:47;;;;;;;;;5.50;4.00;;;;;29.43;27.80;101373.47;5088515;27;46424;-81
2022/07/13 07:55:12;;;;;;;;;4.25;4.00;;;;;29.44;28.12;101378.66;5088940;27;46270;-84
2022/07/13 07:57:48;;;;;;;;;6.25;3.75;;;;;29.42;28.01;101372.63;5089006;27;46663;-83
2022/07/13 08:00:14;;;;;;;;;3.00;3.00;;;;;29.44;28.02;101367.03;5082596;27;45670;-82
2022/07/13 08:02:40;;;;;;;;;5.00;4.00;;;;;29.50;28.48;101376.97;5089709;27;45711;-82
2022/07/13 08:05:07;;;;;;;;;3.75;3.00;;;;;29.50;28.16;101371.59;5088971;27;45648;-81
2022/07/13 08:07:32;;;;;;;;;4.00;3.25;;;;;29.57;27.08;101380.50;5090382;27;45622;-84
2022/07/13 08:09:58;;;;;;;;;5.00;4.00;;;;;29.57;27.97;101375.94;5086214;27;45690;-82
2022/07/13 08:12:23;;;;;;;;;4.00;3.00;;;;;29.54;27.31;101375.50;5087880;27;47868;-83
2022/07/13 08:14:49;;;;;;;;;5.75;4.75;;;;;29.54;27.52;101365.53;5088789;27;45581;-82
2022/07/13 08:17:14;;;;;;;;;3.25;3.25;;;;;29.64;27.07;101378.56;5089546;27;45691;-83
2022/07/13 08:19:39;;;;;;;;;4.50;4.00;;;;;29.58;27.29;101364.03;5089289;27;45616;-82
2022/07/13 08:22:05;;;;;;;;;3.00;3.00;;;;;29.54;26.81;101356.59;5089175;27;46487;-83
2022/07/13 08:24:30;;;;;;;;;4.25;3.00;;;;;29.58;26.69;101365.94;5074898;27;45652;-84
2022/07/13 08:26:57;;;;;;;;;3.25;3.00;;;;;29.64;27.16;101375.88;5089238;27;45677;-82
2022/07/13 08:29:22;;;;;;;;;4.25;3.00;;;;;29.60;26.80;101369.25;5083743;27;45685;-83
2022/07/13 08:31:47;;;;;;;;;4.00;3.75;;;;;29.54;26.81;101359.28;5089448;27;46465;-83
2022/07/13 08:39:41;;;;;;;;;5.00;3.25;;;;;29.53;27.39;101371.13;5090400;27;45648;-84
2022/07/13 08:42:07;;;;;;;;;4.00;3.25;;;;;29.52;27.44;101361.41;5083893;27;45677;-83
2022/07/13 08:44:32;;;;;;;;;3.00;2.75;;;;;29.52;27.33;101364.94;5088930;27;45799;-82
2022/07/13 08:46:59;;;;;;;;;5.25;4.00;;;;;29.55;27.56;101367.19;5088409;27;45781;-82
2022/07/13 08:49:26;;;;;;;;;4.25;3.75;;;;;29.55;27.72;101369.91;5072030;27;46051;-80
2022/07/13 08:51:52;;;;;;;;;2.50;2.50;;;;;29.56;27.39;101371.56;5087274;27;48258;-81
2022/07/13 08:54:17;;;;;;;;;4.00;4.00;;;;;29.54;27.82;101362.00;5088514;27;45745;-80
2022/07/13 08:56:43;;;;;;;;;4.75;4.75;;;;;29.57;27.32;101367.00;5076178;27;45525;-79
2022/07/13 08:59:08;;;;;;;;;4.75;3.25;;;;;29.57;27.39;101370.53;5074863;27;45579;-81
2022/07/13 09:01:34;;;;;;;;;3.00;3.00;;;;;29.59;27.46;101364.88;5073332;27;45559;-82
2022/07/13 09:04:00;;;;;;;;;3.75;3.50;;;;;29.61;27.79;101362.81;5075077;27;46355;-80
2022/07/13 09:06:47;;;;;;;;;5.00;4.25;;;;;29.66;27.67;101359.44;5075708;27;45638;-78
2022/07/13 09:09:33;;;;;;;;;3.25;2.25;;;;;29.69;27.95;101357.13;5065268;28;46298;-78
2022/07/13 09:12:15;;;;;;;;;3.75;3.00;;;;;29.73;27.25;101361.09;5074931;28;45770;-79
2022/07/13 09:14:41;;;;;;;;;4.50;3.75;;;;;29.75;27.07;101353.56;5060880;28;46311;-78
2022/07/13 09:17:06;;;;;;;;;3.00;3.00;;;;;29.73;27.26;101346.75;5073733;28;46410;-79
2022/07/13 09:19:38;;;;;;;;;2.50;2.50;;;;;29.79;27.42;101352.13;5072920;28;46295;-79
2022/07/13 09:22:21;;;;;;;;;6.25;3.75;;;;;29.86;27.32;101358.28;5072609;27;45929;-79
2022/07/13 09:24:50;;;;;;;;;2.50;2.50;;;;;29.84;26.91;101354.16;5074421;27;45973;-81
2022/07/13 09:27:17;;;;;;;;;3.00;3.00;;;;;29.94;26.79;101357.25;5074489;28;45720;-80
2022/07/13 09:29:43;;;;;;;;;4.00;3.00;;;;;29.87;26.37;101341.03;5072593;27;45730;-80
2022/07/13 09:32:11;;;;;;;;;4.00;4.00;;;;;29.98;26.18;101351.19;5068836;27;45663;-79
2022/07/13 09:34:45;;;;;;;;;3.00;3.00;;;;;30.02;26.52;101354.25;5073915;27;47500;-79
2022/07/13 09:37:11;;;;;;;;;4.00;4.00;;;;;29.99;26.50;101346.59;5074889;27;45887;-78
2022/07/13 09:39:58;;;;;;;;;2.00;2.00;;;;;30.14;26.46;101359.78;5066428;27;45738;-78
2022/07/13 09:42:32;;;;;;;;;3.75;3.75;;;;;30.18;26.56;101351.03;5074389;28;45661;-78
2022/07/13 09:47:53;;;;;;;;;4.75;3.50;;;;;30.29;25.84;101352.19;5066600;27;45984;-78
2022/07/13 09:50:24;;;;;;;;;2.50;2.50;;;;;30.31;25.64;101355.50;5073486;27;45895;-79
2022/07/13 09:52:51;;;;;;;;;3.50;3.00;;;;;30.35;25.06;101354.84;5066852;27;46683;-79
2022/07/13 09:55:20;;;;;;;;;2.50;2.50;;;;;30.40;25.38;101351.47;5073222;27;45929;-79
2022/07/13 09:57:55;;;;;;;;;2.25;2.25;;;;;30.43;25.59;101346.47;5073854;27;45609;-79
2022/07/13 10:00:21;;;;;;;;;2.50;2.50;;;;;30.50;25.31;101338.31;5070136;27;45727;-79
2022/07/13 10:02:48;;;;;;;;;3.00;3.00;;;;;30.56;25.50;101337.41;5074036;27;46133;-82
2022/07/13 10:05:15;;;;;;;;;2.50;2.25;;;;;30.63;25.53;101337.34;5070587;27;45887;-80
2022/07/13 10:07:43;;;;;;;;;3.50;3.50;;;;;30.66;25.34;101340.44;5072552;27;45859;-82
2022/07/13 10:10:11;;;;;;;;;4.00;3.50;;;;;30.76;25.16;101348.06;5073159;27;45560;-81
2022/07/13 10:12:36;;;;;;;;;3.00;3.00;;;;;30.80;25.16;101347.38;5067018;27;46940;-81
2022/07/13 10:15:03;;;;;;;;;4.25;3.50;;;;;30.85;25.23;101350.25;5068674;28;46491;-81
2022/07/13 10:17:29;;;;;;;;;2.00;2.00;;;;;30.88;24.78;101343.53;5072772;27;45990;-85
2022/07/13 10:20:13;;;;;;;;;2.75;2.75;;;;;30.95;24.54;101347.03;5072913;27;47155;-86
2022/07/13 10:22:43;;;;;;;;;3.00;3.00;;;;;31.00;24.27;101349.03;5066540;27;46474;-83
2022/07/13 10:25:09;;;;;;;;;2.00;2.00;;;;;31.03;24.08;101349.47;5073595;27;45858;-85
2022/07/13 10:27:36;;;;;;;;;2.25;2.25;;;;;31.11;24.15;101351.03;5073264;28;45794;-84
2022/07/13 10:30:06;;;;;;;;;3.00;3.00;;;;;31.15;23.79;101342.22;5072232;27;46018;-84
2022/07/13 10:32:37;;;;;;;;;1.75;1.75;;;;;31.23;24.22;101338.41;5072773;27;46615;-82
2022/07/13 10:35:04;;;;;;;;;3.00;3.00;;;;;31.32;23.96;101339.72;5076307;27;46148;-83
2022/07/13 10:37:55;;;;;;;;;2.50;2.50;;;;;31.41;24.05;101337.56;5069906;27;45723;-85
2022/07/13 10:40:22;;;;;;;;;3.00;3.00;;;;;31.43;23.73;101333.53;5083821;27;45841;-84
2022/07/13 10:42:53;;;;;;;;;3.00;3.00;;;;;31.48;23.67;101332.84;5071824;27;45798;-85
2022/07/13 10:45:40;;;;;;;;;2.75;2.75;;;;;31.51;23.72;101335.97;5066317;27;47319;-83
2022/07/13 10:48:30;;;;;;;;;1.75;1.75;;;;;31.56;23.58;101327.13;5062098;27;46607;-84
2022/07/13 10:50:58;;;;;;;;;3.00;2.75;;;;;31.60;23.65;101339.19;5071056;28;45741;-82
2022/07/13 10:53:38;;;;;;;;;3.75;3.75;;;;;31.68;23.55;101336.19;5065992;27;45958;-82
2022/07/13 10:56:16;;;;;;;;;4.00;3.00;;;;;31.71;23.87;101335.69;5058760;28;46434;-82
2022/07/13 10:58:43;;;;;;;;;2.75;2.75;;;;;31.76;23.79;101329.59;5068648;28;45848;-82
2022/07/13 11:01:30;;;;;;;;;3.25;2.75;;;;;31.86;23.75;101332.56;5070940;27;45825;-82
2022/07/13 11:03:56;;;;;;;;;2.50;2.25;;;;;31.88;23.98;101331.28;5070647;27;46495;-82
2022/07/13 11:06:23;;;;;;;;;3.75;3.75;;;;;31.95;23.91;101326.59;5065501;27;45684;-82
2022/07/13 11:09:13;;;;;;;;;3.00;3.00;;;;;32.03;23.92;101333.53;5064631;27;45720;-83
2022/07/13 11:11:49;;;;;;;;;2.25;2.25;;;;;32.09;23.66;101336.16;5061002;27;45744;-84
2022/07/13 11:14:36;;;;;;;;;2.75;2.75;;;;;32.17;23.99;101334.22;5061443;27;46664;-83
2022/07/13 11:17:15;;;;;;;;;2.75;2.25;;;;;32.17;23.53;101323.38;5065283;27;45932;-86
2022/07/13 11:20:01;;;;;;;;;2.75;2.50;;;;;32.26;23.54;101325.50;5072023;27;45819;-82
2022/07/13 11:25:23;;;;;;;;;2.00;2.00;;;;;32.34;23.33;101332.44;5081698;27;45982;-82
2022/07/13 11:27:58;;;;;;;;;3.50;3.00;;;;;32.37;23.06;101323.84;5070764;27;45908;-79
2022/07/13 11:30:29;;;;;;;;;2.75;2.75;;;;;32.37;23.08;101319.25;5072676;27;45713;-81
2022/07/13 11:32:55;;;;;;;;;2.00;2.00;;;;;32.45;23.03;101326.19;5088253;27;45738;-86
2022/07/13 11:35:21;;;;;;;;;2.00;2.00;;;;;32.41;23.50;101319.59;5077892;27;45781;-84
2022/07/13 11:37:47;;;;;;;;;4.50;3.00;;;;;32.48;23.41;101315.72;5076020;27;46150;-82
2022/07/13 11:40:34;;;;;;;;;2.75;2.75;;;;;32.54;23.03;101310.41;5076716;27;45629;-87
2022/07/13 11:43:01;;;;;;;;;3.00;2.50;;;;;32.53;23.49;101300.59;5076806;27;45859;-82
2022/07/13 11:45:31;;;;;;;;;2.75;2.75;;;;;32.60;23.32;101304.84;5076700;28;45961;-82
2022/07/13 11:48:01;;;;;;;;;3.50;3.50;;;;;32.69;23.76;101302.63;5072565;28;45581;-85
2022/07/13 11:50:43;;;;;;;;;2.75;2.75;;;;;32.76;23.40;101306.03;5075357;28;45931;-80
2022/07/13 11:53:18;;;;;;;;;3.00;2.25;;;;;32.79;23.17;101308.28;5083950;28;45949;-81
2022/07/13 11:55:43;;;;;;;;;3.00;3.00;;;;;32.82;23.06;101303.19;5081681;28;46637;-82
2022/07/13 11:58:23;;;;;;;;;3.00;2.00;;;;;32.86;23.26;101292.69;5078322;27;45683;-82
2022/07/13 12:00:49;;;;;;;;;3.75;3.75;;;;;32.83;23.63;101282.28;5081819;27;45805;-84
2022/07/13 12:03:14;;;;;;;;;2.50;2.50;;;;;32.88;23.21;101274.25;5081232;27;45586;-90
2022/07/13 12:05:44;;;;;;;;;3.00;2.75;;;;;32.91;23.79;101268.34;5070382;27;45759;-83
2022/07/13 12:08:11;;;;;;;;;3.00;3.00;;;;;33.00;23.46;101285.91;5077964;28;47341;-80
2022/07/13 12:10:37;;;;;;;;;3.00;3.00;;;;;33.07;23.72;101283.06;5077833;27;45615;-85
2022/07/13 12:13:04;;;;;;;;;2.00;1.50;;;;;33.10;23.12;101283.41;5078723;28;45800;-82
2022/07/13 12:15:30;;;;;;;;;2.00;2.00;;;;;33.10;23.30;101275.25;5081013;27;45774;-83
2022/07/13 12:17:55;;;;;;;;;2.00;2.00;;;;;33.19;23.33;101275.75;5081435;27;45743;-84
2022/07/13 12:20:23;;;;;;;;;2.00;2.00;;;;;33.23;23.57;101282.31;5077140;28;45971;-89
2022/07/13 12:22:54;;;;;;;;;1.50;1.00;;;;;33.27;23.58;101270.72;5075290;28;45828;-84
2022/07/13 12:25:34;;;;;;;;;2.00;1.25;;;;;33.27;23.32;101267.19;5078258;28;46375;-83
2022/07/13 12:28:05;;;;;;;;;2.00;2.00;;;;;33.37;22.97;101280.13;5076594;28;48296;-82
2022/07/13 12:30:32;;;;;;;;;3.00;3.00;;;;;33.37;22.97;101272.81;5079394;27;45634;-80
2022/07/13 12:33:01;;;;;;;;;3.50;3.00;;;;;33.36;23.01;101267.63;5084425;28;45878;-84
2022/07/13 12:35:31;;;;;;;;;2.00;2.00;;;;;33.46;23.24;101263.22;5083326;27;45625;-87
2022/07/13 12:37:58;;;;;;;;;3.00;3.00;;;;;33.44;22.68;101259.91;5085768;27;45970;-82
2022/07/13 12:40:59;;;;;;;;;2.50;2.25;;;;;33.56;23.35;101263.41;5071011;28;45635;-86